Terminal Aerodrome Forecast
Issued by NWS

Home | Current Version | Previous Version | Text Only | Print | Product List | Glossary On
Versions: 1 2 3 4 5 6 7 8 9 10 11 12 13 14 15 16 17
494
FTUS44 KLIX 232336
TAFMCB
TAF
KMCB 232336Z 2400/2424 21004KT P6SM FEW025 FEW045 BKN150
     FM240700 VRB03KT P6SM VCTS BKN015CB
      TEMPO 2408/2411 36015G25KT 3SM TSRA OVC012CB
     FM241100 00000KT P6SM BKN025
     FM241900 VRB06KT P6SM SHRA VCTS BKN035CB=

USA.gov is the U.S. government's official web portal to all federal, state and local government web resources and services.